Time;durP1;ratioP1;P1;durP2;ratioP2;P2;SDS_P1;SDS_P2;PMS_P1;PMS_P2;Temp;Humidity;BMP_temperature;BMP_pressure;BME280_temperature;BME280_humidity;BME280_pressure;Samples;Min_cycle;Max_cycle;Signal;HPM_P1;HPM_P2
2022/08/24 00:00:08;;;;;;;;;;;;;;;16.69;100.00;101573.22;1049610;28;20348;-73
2022/08/24 00:00:40;;;;;;;;;;;;;;;16.63;100.00;101566.06;1048599;28;20302;-73
2022/08/24 00:01:12;;;;;;;;;;;;;;;16.60;100.00;101571.94;1048498;28;20030;-73
2022/08/24 00:01:44;;;;;;;;;;;;;;;16.77;100.00;101561.28;1048870;28;19924;-74
2022/08/24 00:02:17;;;;;;;;;;;;;;;16.79;100.00;101561.88;1049086;28;19925;-74
2022/08/24 00:02:49;;;;;;;;;;;;;;;16.87;100.00;101564.97;1053101;28;19924;-73
2022/08/24 00:03:23;;;;;;;;;;;;;;;16.90;100.00;101564.50;1054442;28;19931;-73
2022/08/24 00:04:05;;;;;;;;;;;;;;;16.90;100.00;101564.50;1052851;28;19953;-73
2022/08/24 00:04:38;;;;;;;;;;;;;;;16.86;100.00;101571.41;1053010;28;19924;-73
2022/08/24 00:05:11;;;;;;;;;;;;;;;16.74;100.00;101562.59;1053305;28;19928;-74
2022/08/24 00:05:47;;;;;;;;;;;;;;;16.67;100.00;101568.06;1050939;28;19924;-74
2022/08/24 00:06:21;;;;;;;;;;;;;;;16.88;100.00;101569.31;1052959;28;20384;-73
2022/08/24 00:06:53;;;;;;;;;;;;;;;16.96;100.00;101568.91;1048644;28;19924;-73
2022/08/24 00:07:26;;;;;;;;;;;;;;;17.05;100.00;101573.94;1048597;28;20240;-73
2022/08/24 00:07:59;;;;;;;;;;;;;;;17.09;100.00;101572.38;1052756;28;19924;-73
2022/08/24 00:08:34;;;;;;;;;;;;;;;17.16;100.00;101567.66;1054310;28;19924;-73
2022/08/24 00:09:06;;;;;;;;;;;;;;;17.21;100.00;101573.13;1057038;28;19950;-73
2022/08/24 00:09:38;;;;;;;;;;;;;;;17.25;100.00;101575.09;1055254;28;19923;-73
2022/08/24 00:10:12;;;;;;;;;;;;;;;17.26;100.00;101565.16;1052667;28;19928;-74
2022/08/24 00:10:46;;;;;;;;;;;;;;;17.27;100.00;101567.59;1053312;28;19932;-73
2022/08/24 00:11:18;;;;;;;;;;;;;;;17.25;100.00;101566.19;1052763;28;20382;-73
2022/08/24 00:11:51;;;;;;;;;;;;;;;17.19;100.00;101567.16;1048387;28;19980;-73
2022/08/24 00:12:24;;;;;;;;;;;;;;;17.01;100.00;101567.41;1048287;28;20065;-74
2022/08/24 00:12:57;;;;;;;;;;;;;;;17.17;100.00;101562.03;1048490;28;19924;-73
2022/08/24 00:13:28;;;;;;;;;;;;;;;17.19;100.00;101564.47;1049763;28;19990;-74
2022/08/24 00:14:10;;;;;;;;;;;;;;;17.10;100.00;101565.94;1053220;28;19932;-74
2022/08/24 00:14:45;;;;;;;;;;;;;;;17.14;100.00;101570.59;1048872;28;19924;-74
2022/08/24 00:15:20;;;;;;;;;;;;;;;16.99;100.00;101576.53;1052720;28;20306;-73
2022/08/24 00:15:53;;;;;;;;;;;;;;;16.81;100.00;101568.63;1052533;28;19924;-73
2022/08/24 00:16:28;;;;;;;;;;;;;;;16.87;100.00;101567.66;1054872;28;19931;-73
2022/08/24 00:17:03;;;;;;;;;;;;;;;16.75;100.00;101571.47;1054859;28;19940;-73
2022/08/24 00:17:36;;;;;;;;;;;;;;;16.70;100.00;101572.16;1052940;28;19924;-73
2022/08/24 00:18:09;;;;;;;;;;;;;;;16.71;100.00;101565.75;1053269;28;19931;-73
2022/08/24 00:18:41;;;;;;;;;;;;;;;16.74;100.00;101567.16;1044398;28;20447;-74
2022/08/24 00:19:13;;;;;;;;;;;;;;;16.77;100.00;101572.06;1043774;28;19925;-73
2022/08/24 00:19:47;;;;;;;;;;;;;;;16.69;100.00;101573.22;1040387;28;20012;-74
2022/08/24 00:20:21;;;;;;;;;;;;;;;16.63;100.00;101566.06;1040352;28;20032;-73
2022/08/24 00:20:55;;;;;;;;;;;;;;;16.64;100.00;101568.53;1048087;28;19925;-73
2022/08/24 00:21:29;;;;;;;;;;;;;;;16.66;100.00;101565.63;1045653;28;20034;-73
2022/08/24 00:22:02;;;;;;;;;;;;;;;16.63;100.00;101571.47;1048563;28;20074;-74
2022/08/24 00:22:35;;;;;;;;;;;;;;;16.62;100.00;101572.50;1043864;28;20290;-74
2022/08/24 00:23:09;;;;;;;;;;;;;;;16.49;100.00;101568.22;1045603;28;20486;-73
2022/08/24 00:23:42;;;;;;;;;;;;;;;16.48;100.00;101573.84;1048611;28;19924;-73
2022/08/24 00:24:17;;;;;;;;;;;;;;;16.46;100.00;101570.59;1045745;28;19925;-73
2022/08/24 00:24:51;;;;;;;;;;;;;;;16.36;100.00;101571.97;1048177;28;19924;-73
2022/08/24 00:25:22;;;;;;;;;;;;;;;16.33;100.00;101572.47;1044320;28;19932;-73
2022/08/24 00:25:54;;;;;;;;;;;;;;;16.33;100.00;101572.47;1041547;28;19925;-73
2022/08/24 00:26:28;;;;;;;;;;;;;;;16.35;100.00;101564.97;1044115;28;20289;-73
2022/08/24 00:27:06;;;;;;;;;;;;;;;16.38;100.00;101569.88;1045733;28;19998;-73
2022/08/24 00:27:40;;;;;;;;;;;;;;;16.23;100.00;101572.25;1046344;28;19956;-73
2022/08/24 00:28:12;;;;;;;;;;;;;;;16.16;100.00;101566.19;1048433;28;19924;-73
2022/08/24 00:28:44;;;;;;;;;;;;;;;16.22;100.00;101567.94;1043839;28;19926;-73
2022/08/24 00:29:17;;;;;;;;;;;;;;;16.25;100.00;101566.63;1040317;28;19968;-73
2022/08/24 00:29:50;;;;;;;;;;;;;;;16.20;100.00;101571.91;1040038;28;19925;-73
2022/08/24 00:30:24;;;;;;;;;;;;;;;16.16;100.00;101554.59;1039818;28;19941;-73
2022/08/24 00:30:55;;;;;;;;;;;;;;;16.25;100.00;101564.78;1037081;28;19976;-73
2022/08/24 00:31:28;;;;;;;;;;;;;;;16.23;100.00;101571.44;1040865;28;19925;-73
2022/08/24 00:32:07;;;;;;;;;;;;;;;16.20;100.00;101564.66;1045416;28;20326;-74
2022/08/24 00:32:42;;;;;;;;;;;;;;;16.22;100.00;101564.44;1043828;28;20406;-73
2022/08/24 00:33:16;;;;;;;;;;;;;;;16.19;100.00;101563.03;1040235;28;19925;-73
2022/08/24 00:33:50;;;;;;;;;;;;;;;16.14;100.00;101568.28;1040358;28;19925;-73
2022/08/24 00:34:25;;;;;;;;;;;;;;;16.13;100.00;101566.63;1040611;28;19948;-73
2022/08/24 00:34:58;;;;;;;;;;;;;;;16.14;100.00;101562.06;1048570;28;19928;-73
2022/08/24 00:35:30;;;;;;;;;;;;;;;16.11;100.00;101562.56;1048149;28;19960;-74
2022/08/24 00:36:03;;;;;;;;;;;;;;;16.11;100.00;101560.69;1048751;28;19924;-74
2022/08/24 00:36:36;;;;;;;;;;;;;;;16.09;100.00;101565.47;1048118;28;19931;-74
2022/08/24 00:37:08;;;;;;;;;;;;;;;16.04;100.00;101560.00;1048398;28;19928;-73
2022/08/24 00:37:40;;;;;;;;;;;;;;;16.01;100.00;101569.34;1048642;28;19949;-74
2022/08/24 00:38:13;;;;;;;;;;;;;;;15.97;100.00;101557.44;1044176;28;19932;-73
2022/08/24 00:38:48;;;;;;;;;;;;;;;15.93;100.00;101561.66;1043992;28;19933;-74
2022/08/24 00:39:22;;;;;;;;;;;;;;;15.88;100.00;101561.50;1041663;28;20358;-73
2022/08/24 00:39:56;;;;;;;;;;;;;;;15.88;100.00;101569.56;1042107;28;20349;-74
2022/08/24 00:40:33;;;;;;;;;;;;;;;15.91;100.00;101563.75;1042559;28;19925;-74
2022/08/24 00:41:05;;;;;;;;;;;;;;;15.99;100.00;101559.88;1039343;28;20391;-73
2022/08/24 00:41:40;;;;;;;;;;;;;;;15.95;100.00;101551.47;1039848;28;19936;-74
2022/08/24 00:42:12;;;;;;;;;;;;;;;15.90;100.00;101563.97;1037655;28;20524;-73
2022/08/24 00:42:45;;;;;;;;;;;;;;;16.02;100.00;101560.22;1042519;28;19979;-73
2022/08/24 00:43:18;;;;;;;;;;;;;;;16.20;100.00;101563.84;1036320;28;20354;-73
2022/08/24 00:43:57;;;;;;;;;;;;;;;16.31;100.00;101560.31;1032548;28;20103;-74
2022/08/24 00:44:30;;;;;;;;;;;;;;;16.23;100.00;101564.19;1041940;28;19925;-74
2022/08/24 00:45:02;;;;;;;;;;;;;;;16.08;100.00;101567.34;1047837;28;19931;-73
2022/08/24 00:45:36;;;;;;;;;;;;;;;15.90;100.00;101563.97;1050173;28;19924;-73
2022/08/24 00:46:12;;;;;;;;;;;;;;;15.81;100.00;101558.13;1049293;28;20524;-73
2022/08/24 00:46:44;;;;;;;;;;;;;;;15.84;100.00;101568.41;1048254;28;19974;-73
2022/08/24 00:47:21;;;;;;;;;;;;;;;15.80;100.00;101561.03;1048615;28;19940;-73
2022/08/24 00:47:57;;;;;;;;;;;;;;;15.84;100.00;101562.22;1048285;28;19951;-73
2022/08/24 00:48:31;;;;;;;;;;;;;;;15.87;100.00;101559.88;1044429;28;19925;-73
2022/08/24 00:49:05;;;;;;;;;;;;;;;15.93;100.00;101566.19;1041886;28;19926;-73
2022/08/24 00:49:45;;;;;;;;;;;;;;;15.89;100.00;101565.03;1041867;28;19925;-73
2022/08/24 00:50:19;;;;;;;;;;;;;;;15.91;100.00;101565.63;1039845;28;19992;-73
2022/08/24 00:50:57;;;;;;;;;;;;;;;15.98;100.00;101567.13;1039539;28;20307;-73
2022/08/24 00:51:30;;;;;;;;;;;;;;;16.10;100.00;101566.28;1041274;28;19937;-73
2022/08/24 00:52:02;;;;;;;;;;;;;;;16.31;100.00;101563.81;1044036;28;19925;-73
2022/08/24 00:52:38;;;;;;;;;;;;;;;16.27;100.00;101567.22;1048366;28;19947;-74
2022/08/24 00:53:24;;;;;;;;;;;;;;;16.37;100.00;101568.25;1045293;28;20353;-73
2022/08/24 00:53:57;;;;;;;;;;;;;;;16.48;100.00;101568.47;1052712;28;20440;-73
2022/08/24 00:54:32;;;;;;;;;;;;;;;16.39;100.00;101571.50;1043970;28;19928;-73
2022/08/24 00:55:09;;;;;;;;;;;;;;;16.52;100.00;101570.44;1039198;28;20039;-73
2022/08/24 00:55:44;;;;;;;;;;;;;;;16.51;100.00;101573.38;1034342;28;19925;-73
2022/08/24 00:56:20;;;;;;;;;;;;;;;16.41;100.00;101573.13;1040931;28;19925;-73
2022/08/24 00:56:53;;;;;;;;;;;;;;;16.41;100.00;101578.53;1048797;28;19925;-73
2022/08/24 00:57:29;;;;;;;;;;;;;;;16.42;100.00;101572.09;1058593;27;19960;-73
2022/08/24 00:58:07;;;;;;;;;;;;;;;16.58;100.00;101572.19;1052707;28;19970;-73
2022/08/24 00:59:00;;;;;;;;;;;;;;;16.69;100.00;101575.91;1048230;28;20412;-73
2022/08/24 00:59:34;;;;;;;;;;;;;;;16.85;100.00;101574.34;1044398;28;20104;-74
2022/08/24 01:00:16;;;;;;;;;;;;;;;16.76;100.00;101571.22;1056769;28;20382;-73
2022/08/24 01:00:50;;;;;;;;;;;;;;;16.74;100.00;101583.28;1061271;27;19923;-73
2022/08/24 01:01:24;;;;;;;;;;;;;;;16.64;100.00;101578.47;1056819;28;19931;-73
2022/08/24 01:01:56;;;;;;;;;;;;;;;16.65;100.00;101580.09;1043504;28;19932;-73
2022/08/24 01:02:32;;;;;;;;;;;;;;;16.66;100.00;101579.91;1039715;28;20399;-73
2022/08/24 01:03:07;;;;;;;;;;;;;;;16.64;100.00;101579.28;1035291;28;20016;-73
2022/08/24 01:03:41;;;;;;;;;;;;;;;16.64;100.00;101583.84;1047512;28;19932;-73
2022/08/24 01:04:16;;;;;;;;;;;;;;;16.60;100.00;101583.50;1044158;28;19969;-74
2022/08/24 01:04:53;;;;;;;;;;;;;;;16.66;100.00;101587.16;1041500;28;20013;-73
2022/08/24 01:05:26;;;;;;;;;;;;;;;16.68;100.00;101574.28;1035827;28;19968;-73
2022/08/24 01:05:59;;;;;;;;;;;;;;;16.60;100.00;101582.69;1041775;28;19931;-73
2022/08/24 01:06:32;;;;;;;;;;;;;;;16.52;100.00;101580.38;1041339;28;20004;-73
2022/08/24 01:07:05;;;;;;;;;;;;;;;16.54;100.00;101589.03;1042008;28;20465;-73
2022/08/24 01:07:37;;;;;;;;;;;;;;;16.54;100.00;101581.78;1043352;28;19932;-73
2022/08/24 01:08:10;;;;;;;;;;;;;;;16.58;100.00;101591.00;1040858;28;20291;-73
2022/08/24 01:08:44;;;;;;;;;;;;;;;16.64;100.00;101586.53;1040161;28;20096;-74
2022/08/24 01:09:18;;;;;;;;;;;;;;;16.67;100.00;101594.97;1040527;28;19993;-73
2022/08/24 01:09:53;;;;;;;;;;;;;;;16.73;100.00;101587.84;1039920;28;20390;-73
2022/08/24 01:10:27;;;;;;;;;;;;;;;16.77;100.00;101589.00;1043578;28;19924;-73
2022/08/24 01:11:04;;;;;;;;;;;;;;;16.77;100.00;101597.09;1046784;28;19932;-74
2022/08/24 01:11:37;;;;;;;;;;;;;;;16.80;100.00;101580.47;1052482;28;19924;-73
2022/08/24 01:12:09;;;;;;;;;;;;;;;16.81;100.00;101595.53;1050463;28;19924;-73
2022/08/24 01:12:42;;;;;;;;;;;;;;;16.72;100.00;101591.59;1044202;28;19984;-74
2022/08/24 01:13:31;;;;;;;;;;;;;;;16.74;100.00;101594.88;1048762;28;19929;-73
2022/08/24 01:14:03;;;;;;;;;;;;;;;16.61;100.00;101600.47;1044145;28;19931;-73
2022/08/24 01:14:34;;;;;;;;;;;;;;;16.58;100.00;101590.19;1043262;28;19928;-73
2022/08/24 01:15:07;;;;;;;;;;;;;;;16.66;100.00;101592.53;1039046;28;19944;-73
2022/08/24 01:15:40;;;;;;;;;;;;;;;16.67;100.00;101594.16;1040436;28;19936;-73
2022/08/24 01:18:48;;;;;;;;;;;;;;;16.72;100.00;101590.78;1045145;28;20466;-73
2022/08/24 01:18:50;;;;;;;;;;;;;;;16.42;100.00;101598.97;1049070;28;19924;-73
2022/08/24 01:19:43;;;;;;;;;;;;;;;16.28;100.00;101601.94;1043975;28;19933;-73
2022/08/24 01:20:14;;;;;;;;;;;;;;;16.26;100.00;101598.66;1037700;28;20414;-73
2022/08/24 01:20:48;;;;;;;;;;;;;;;16.24;100.00;101605.31;1032053;28;19933;-73
2022/08/24 01:21:23;;;;;;;;;;;;;;;16.16;100.00;101603.81;1039073;28;19925;-73
2022/08/24 01:22:02;;;;;;;;;;;;;;;16.12;100.00;101599.94;1043462;28;20006;-73
2022/08/24 01:22:33;;;;;;;;;;;;;;;16.05;100.00;101592.00;1041736;28;19932;-74
2022/08/24 01:23:10;;;;;;;;;;;;;;;15.98;100.00;101606.63;1043920;28;19951;-73
2022/08/24 01:23:42;;;;;;;;;;;;;;;16.09;100.00;101600.41;1039341;28;20426;-73
2022/08/24 01:24:14;;;;;;;;;;;;;;;16.20;100.00;101593.41;1036935;28;19968;-73
2022/08/24 01:24:47;;;;;;;;;;;;;;;16.20;100.00;101594.22;1035950;28;20009;-73
2022/08/24 01:25:21;;;;;;;;;;;;;;;16.16;100.00;101600.28;1033092;28;20351;-73
2022/08/24 01:25:54;;;;;;;;;;;;;;;16.05;100.00;101601.94;1036993;28;20020;-73
2022/08/24 01:26:34;;;;;;;;;;;;;;;16.09;100.00;101597.72;1037326;28;20016;-73
2022/08/24 01:27:08;;;;;;;;;;;;;;;16.14;100.00;101589.78;1038142;28;19926;-74
2022/08/24 01:27:42;;;;;;;;;;;;;;;16.25;100.00;101597.03;1046240;28;20084;-73
2022/08/24 01:28:18;;;;;;;;;;;;;;;16.40;100.00;101596.53;1041739;28;19929;-74
2022/08/24 01:29:04;;;;;;;;;;;;;;;16.38;100.00;101596.75;1045529;28;19947;-73
2022/08/24 01:29:37;;;;;;;;;;;;;;;16.50;100.00;101598.63;1040737;28;19933;-73
2022/08/24 01:30:12;;;;;;;;;;;;;;;16.44;100.00;101592.34;1039379;28;19925;-73
2022/08/24 01:30:46;;;;;;;;;;;;;;;16.46;100.00;101597.47;1042611;28;20020;-73
2022/08/24 01:31:19;;;;;;;;;;;;;;;16.30;100.00;101594.44;1045696;28;19925;-73
2022/08/24 01:31:53;;;;;;;;;;;;;;;16.34;100.00;101594.78;1045925;28;19932;-73
2022/08/24 01:32:29;;;;;;;;;;;;;;;16.39;100.00;101598.41;1047260;28;19935;-73
2022/08/24 01:33:04;;;;;;;;;;;;;;;16.46;100.00;101602.84;1044064;28;20510;-73
2022/08/24 01:33:37;;;;;;;;;;;;;;;16.36;100.00;101590.00;1045758;28;20302;-73
2022/08/24 01:34:12;;;;;;;;;;;;;;;16.31;100.00;101590.69;1043751;28;19925;-73
2022/08/24 01:34:46;;;;;;;;;;;;;;;16.29;100.00;101587.44;1041025;28;19932;-73
2022/08/24 01:35:20;;;;;;;;;;;;;;;16.07;100.00;101594.47;1048310;28;20187;-74
2022/08/24 01:36:08;;;;;;;;;;;;;;;16.03;100.00;101595.97;1045901;28;19933;-73
2022/08/24 01:36:46;;;;;;;;;;;;;;;16.11;100.00;101590.25;1047844;28;19931;-73
2022/08/24 01:37:21;;;;;;;;;;;;;;;16.10;100.00;101596.69;1039096;28;20387;-73
2022/08/24 01:37:56;;;;;;;;;;;;;;;16.14;100.00;101594.34;1043485;28;19924;-73
2022/08/24 01:38:32;;;;;;;;;;;;;;;16.14;100.00;101595.16;1042498;28;19931;-74
2022/08/24 01:39:11;;;;;;;;;;;;;;;16.14;100.00;101592.47;1041919;28;20402;-73
2022/08/24 01:39:45;;;;;;;;;;;;;;;16.02;100.00;101597.84;1040062;28;20379;-73
2022/08/24 01:40:20;;;;;;;;;;;;;;;16.06;100.00;101592.81;1042048;28;20014;-74
2022/08/24 01:40:56;;;;;;;;;;;;;;;16.16;100.00;101587.69;1042017;28;19925;-73
2022/08/24 01:41:31;;;;;;;;;;;;;;;16.28;100.00;101593.88;1045877;28;20160;-73
2022/08/24 01:42:06;;;;;;;;;;;;;;;16.31;100.00;101596.09;1045442;28;19978;-73
2022/08/24 01:42:47;;;;;;;;;;;;;;;16.34;100.00;101594.78;1043371;28;19931;-73
2022/08/24 01:43:23;;;;;;;;;;;;;;;16.35;100.00;101597.25;1043412;28;19925;-74
2022/08/24 01:43:55;;;;;;;;;;;;;;;16.37;100.00;101592.44;1046581;28;19925;-73
2022/08/24 01:44:28;;;;;;;;;;;;;;;16.38;100.00;101590.56;1045823;28;20031;-73
2022/08/24 01:45:03;;;;;;;;;;;;;;;16.34;100.00;101592.91;1043748;28;19933;-74
2022/08/24 01:45:36;;;;;;;;;;;;;;;16.34;100.00;101592.91;1035897;28;19926;-73
2022/08/24 01:46:09;;;;;;;;;;;;;;;16.36;100.00;101590.00;1037102;28;19929;-74
2022/08/24 01:46:47;;;;;;;;;;;;;;;16.27;100.00;101602.16;1035457;28;19988;-73
2022/08/24 01:47:22;;;;;;;;;;;;;;;16.27;100.00;101589.53;1039454;28;19925;-73
2022/08/24 01:47:57;;;;;;;;;;;;;;;16.26;100.00;101595.97;1044040;28;19925;-73
2022/08/24 01:48:31;;;;;;;;;;;;;;;16.24;100.00;101600.78;1042005;28;20291;-73
2022/08/24 01:49:05;;;;;;;;;;;;;;;15.95;100.00;101593.66;1043825;28;19924;-74
2022/08/24 01:49:40;;;;;;;;;;;;;;;15.79;100.00;101597.00;1039896;28;19965;-73
2022/08/24 01:50:14;;;;;;;;;;;;;;;15.59;100.00;101592.78;1035070;28;19974;-73
2022/08/24 01:50:48;;;;;;;;;;;;;;;15.48;100.00;101592.72;1035399;28;19925;-73
2022/08/24 01:51:30;;;;;;;;;;;;;;;15.41;100.00;101598.22;1033680;28;20027;-73
2022/08/24 01:52:06;;;;;;;;;;;;;;;15.29;100.00;101598.16;1036953;28;19932;-73
2022/08/24 01:52:42;;;;;;;;;;;;;;;15.29;100.00;101602.72;1046621;28;19969;-74
2022/08/24 01:53:36;;;;;;;;;;;;;;;15.34;100.00;101595.63;1045499;28;19928;-73
2022/08/24 01:54:09;;;;;;;;;;;;;;;15.38;100.00;101596.00;1043903;28;19925;-73
2022/08/24 01:54:42;;;;;;;;;;;;;;;15.39;100.00;101600.31;1035970;28;19925;-73
2022/08/24 01:55:17;;;;;;;;;;;;;;;15.35;100.00;101599.13;1040687;28;19933;-73
2022/08/24 01:55:55;;;;;;;;;;;;;;;15.39;100.00;101598.44;1042116;28;20580;-73
2022/08/24 01:56:31;;;;;;;;;;;;;;;15.34;100.00;101597.47;1043814;28;20415;-73
2022/08/24 01:57:06;;;;;;;;;;;;;;;15.31;100.00;101597.94;1045039;28;19925;-73
2022/08/24 01:57:45;;;;;;;;;;;;;;;15.26;100.00;101606.66;1041848;28;19932;-73
2022/08/24 01:58:20;;;;;;;;;;;;;;;15.17;100.00;101593.81;1039937;28;19925;-73
2022/08/24 01:58:54;;;;;;;;;;;;;;;15.24;100.00;101599.91;1042056;28;19925;-73
2022/08/24 01:59:27;;;;;;;;;;;;;;;15.20;100.00;101596.03;1041919;28;19931;-74
2022/08/24 02:00:01;;;;;;;;;;;;;;;15.17;100.00;101589.25;1044697;28;19924;-73
2022/08/24 02:00:44;;;;;;;;;;;;;;;15.18;100.00;101595.44;1052087;28;19931;-73
2022/08/24 02:01:18;;;;;;;;;;;;;;;15.14;100.00;101601.28;1051888;28;20398;-73
2022/08/24 02:01:56;;;;;;;;;;;;;;;15.16;100.00;101598.38;1047463;28;19924;-73
2022/08/24 02:02:30;;;;;;;;;;;;;;;15.19;100.00;101599.78;1040257;28;19925;-74
2022/08/24 02:03:03;;;;;;;;;;;;;;;15.20;100.00;101594.16;1037137;28;19925;-73
2022/08/24 02:03:37;;;;;;;;;;;;;;;15.15;100.00;101592.19;1037501;28;19932;-74
2022/08/24 02:04:14;;;;;;;;;;;;;;;15.33;100.00;101593.16;1036968;28;19925;-73
2022/08/24 02:04:52;;;;;;;;;;;;;;;15.48;100.00;101596.22;1041952;28;20369;-73
2022/08/24 02:05:26;;;;;;;;;;;;;;;15.48;100.00;101585.50;1042529;28;19976;-73
2022/08/24 02:05:59;;;;;;;;;;;;;;;15.60;100.00;101591.72;1038884;28;20422;-74
2022/08/24 02:06:34;;;;;;;;;;;;;;;15.59;100.00;101590.09;1044149;28;19960;-73
2022/08/24 02:07:12;;;;;;;;;;;;;;;15.50;100.00;101599.50;1045666;28;20322;-73
2022/08/24 02:07:46;;;;;;;;;;;;;;;15.41;100.00;101601.72;1048038;28;19924;-74
2022/08/24 02:08:20;;;;;;;;;;;;;;;15.35;100.00;101591.09;1044026;28;19925;-73
2022/08/24 02:08:56;;;;;;;;;;;;;;;15.35;100.00;101596.44;1043032;28;20438;-73
2022/08/24 02:09:31;;;;;;;;;;;;;;;15.34;100.00;101589.41;1048032;28;19924;-73
2022/08/24 02:10:07;;;;;;;;;;;;;;;15.22;100.00;101597.44;1047884;28;19931;-73
2022/08/24 02:10:42;;;;;;;;;;;;;;;15.17;100.00;101588.44;1044110;28;19946;-74
2022/08/24 02:11:28;;;;;;;;;;;;;;;15.16;100.00;101598.38;1036594;28;19932;-73
2022/08/24 02:12:01;;;;;;;;;;;;;;;15.19;100.00;101594.41;1039812;28;20522;-73
2022/08/24 02:12:39;;;;;;;;;;;;;;;15.19;100.00;101603.28;1044974;28;19925;-73
2022/08/24 02:13:14;;;;;;;;;;;;;;;15.09;100.00;101593.09;1047588;28;19928;-73
2022/08/24 02:13:47;;;;;;;;;;;;;;;15.16;100.00;101598.38;1043766;28;20410;-73
2022/08/24 02:14:24;;;;;;;;;;;;;;;15.13;100.00;101596.97;1044339;28;19932;-73
2022/08/24 02:15:04;;;;;;;;;;;;;;;15.13;100.00;101602.31;1043955;28;19952;-73
2022/08/24 02:15:38;;;;;;;;;;;;;;;15.13;100.00;101596.97;1048327;28;19928;-73
2022/08/24 02:16:15;;;;;;;;;;;;;;;15.12;100.00;101597.19;1048074;28;19979;-73
2022/08/24 02:16:48;;;;;;;;;;;;;;;15.07;100.00;101600.56;1043896;28;19975;-73
2022/08/24 02:17:27;;;;;;;;;;;;;;;15.03;100.00;101602.03;1044087;28;19932;-73
2022/08/24 02:17:59;;;;;;;;;;;;;;;14.98;100.00;101601.91;1045475;28;20010;-73
2022/08/24 02:18:32;;;;;;;;;;;;;;;14.99;100.00;101592.81;1039938;28;19933;-73
2022/08/24 02:19:09;;;;;;;;;;;;;;;14.98;100.00;101593.84;1039634;28;20008;-73
2022/08/24 02:19:42;;;;;;;;;;;;;;;15.00;100.00;101597.13;1038394;28;19933;-73
2022/08/24 02:20:18;;;;;;;;;;;;;;;15.01;100.00;101600.63;1043799;28;19925;-73
2022/08/24 02:20:55;;;;;;;;;;;;;;;15.14;100.00;101595.09;1043899;28;20349;-73
2022/08/24 02:21:29;;;;;;;;;;;;;;;15.30;100.00;101594.44;1039904;28;20055;-73
2022/08/24 02:22:01;;;;;;;;;;;;;;;15.44;100.00;101590.50;1042873;28;19925;-73
2022/08/24 02:22:34;;;;;;;;;;;;;;;15.62;100.00;101597.72;1044109;28;19933;-73
2022/08/24 02:23:10;;;;;;;;;;;;;;;15.52;100.00;101601.97;1041708;28;19925;-73
2022/08/24 02:23:47;;;;;;;;;;;;;;;15.38;100.00;101596.00;1047861;28;19932;-73
2022/08/24 02:24:22;;;;;;;;;;;;;;;15.31;100.00;101595.25;1048133;28;19935;-73
2022/08/24 02:24:54;;;;;;;;;;;;;;;15.27;100.00;101594.88;1043963;28;19925;-73
2022/08/24 02:25:29;;;;;;;;;;;;;;;15.28;100.00;101598.38;1040970;28;19925;-73
2022/08/24 02:26:04;;;;;;;;;;;;;;;15.22;100.00;101593.94;1043877;28;20468;-73
2022/08/24 02:26:39;;;;;;;;;;;;;;;15.22;100.00;101592.06;1042942;28;20298;-73
2022/08/24 02:27:14;;;;;;;;;;;;;;;15.20;100.00;101593.34;1045063;28;20015;-73
2022/08/24 02:27:45;;;;;;;;;;;;;;;15.34;100.00;101587.56;1047909;28;19924;-73
2022/08/24 02:28:19;;;;;;;;;;;;;;;15.39;100.00;101592.25;1048319;28;19925;-73
2022/08/24 02:28:53;;;;;;;;;;;;;;;15.45;100.00;101591.31;1047731;28;20378;-73
2022/08/24 02:29:26;;;;;;;;;;;;;;;15.53;100.00;101590.97;1041028;28;19936;-73
2022/08/24 02:30:00;;;;;;;;;;;;;;;15.61;100.00;101596.06;1048089;28;20333;-74
2022/08/24 02:30:35;;;;;;;;;;;;;;;15.59;100.00;101590.09;1048038;28;19975;-73
2022/08/24 02:31:11;;;;;;;;;;;;;;;15.51;100.00;101590.41;1045469;28;19924;-73
2022/08/24 02:31:44;;;;;;;;;;;;;;;15.32;100.00;101600.38;1046428;28;19971;-73
2022/08/24 02:32:16;;;;;;;;;;;;;;;15.32;100.00;101596.88;1041089;28;19960;-73
2022/08/24 02:32:50;;;;;;;;;;;;;;;15.34;100.00;101595.63;1040936;28;20303;-73
2022/08/24 02:33:24;;;;;;;;;;;;;;;15.33;100.00;101598.50;1039576;28;19925;-73
2022/08/24 02:33:56;;;;;;;;;;;;;;;15.28;100.00;101590.34;1045228;28;20357;-73
2022/08/24 02:34:31;;;;;;;;;;;;;;;15.26;100.00;101589.75;1044690;28;20641;-73
2022/08/24 02:35:04;;;;;;;;;;;;;;;15.27;100.00;101594.06;1049238;28;20077;-73
2022/08/24 02:35:37;;;;;;;;;;;;;;;15.20;100.00;101586.13;1046849;28;19931;-73
2022/08/24 02:36:13;;;;;;;;;;;;;;;15.15;100.00;101597.53;1044008;28;19925;-73
2022/08/24 02:37:02;;;;;;;;;;;;;;;15.07;100.00;101595.19;1047652;28;19924;-74
2022/08/24 02:37:36;;;;;;;;;;;;;;;15.06;100.00;101593.53;1043461;28;20297;-73
2022/08/24 02:38:17;;;;;;;;;;;;;;;15.11;100.00;101593.69;1043738;28;20475;-73
2022/08/24 02:38:49;;;;;;;;;;;;;;;15.09;100.00;101598.47;1046051;28;20318;-73
2022/08/24 02:39:28;;;;;;;;;;;;;;;15.02;100.00;101595.03;1042429;28;19929;-74
2022/08/24 02:40:04;;;;;;;;;;;;;;;15.03;100.00;101598.53;1045728;28;20431;-73
2022/08/24 02:40:39;;;;;;;;;;;;;;;15.03;100.00;101595.84;1043916;28;19929;-74
2022/08/24 02:41:11;;;;;;;;;;;;;;;15.04;100.00;101605.53;1039788;28;19932;-73
2022/08/24 02:41:44;;;;;;;;;;;;;;;15.04;100.00;101594.78;1037401;28;19925;-73
2022/08/24 02:42:19;;;;;;;;;;;;;;;14.97;100.00;101597.56;1040915;28;19932;-73
2022/08/24 02:42:50;;;;;;;;;;;;;;;14.96;100.00;101598.63;1036690;28;19953;-73
2022/08/24 02:43:23;;;;;;;;;;;;;;;14.97;100.00;101602.13;1039999;28;19933;-73
2022/08/24 02:43:56;;;;;;;;;;;;;;;14.96;100.00;101603.16;1036458;28;19932;-73
2022/08/24 02:44:29;;;;;;;;;;;;;;;14.92;100.00;101596.63;1036317;28;19951;-73
2022/08/24 02:45:04;;;;;;;;;;;;;;;14.98;100.00;101604.56;1040958;28;19933;-73
2022/08/24 02:45:43;;;;;;;;;;;;;;;14.96;100.00;101606.66;1037106;28;19926;-73
2022/08/24 02:46:25;;;;;;;;;;;;;;;14.98;100.00;101601.91;1041786;28;20411;-73
2022/08/24 02:47:00;;;;;;;;;;;;;;;15.13;100.00;101604.19;1043994;28;19925;-73
2022/08/24 02:47:38;;;;;;;;;;;;;;;15.30;100.00;101604.34;1051398;28;19958;-73
2022/08/24 02:48:12;;;;;;;;;;;;;;;15.38;100.00;101604.84;1050365;28;19933;-73
2022/08/24 02:48:46;;;;;;;;;;;;;;;15.45;100.00;101602.06;1048288;28;19932;-73
2022/08/24 02:49:41;;;;;;;;;;;;;;;15.53;100.00;101603.59;1044158;28;19932;-73
2022/08/24 02:50:16;;;;;;;;;;;;;;;15.58;100.00;101607.25;1043576;28;20442;-73
2022/08/24 02:50:51;;;;;;;;;;;;;;;15.61;100.00;101606.81;1043716;28;20349;-73
2022/08/24 02:51:29;;;;;;;;;;;;;;;15.60;100.00;101615.06;1045000;28;20366;-73
2022/08/24 02:52:14;;;;;;;;;;;;;;;15.65;100.00;101624.09;1047159;28;20023;-74
2022/08/24 02:52:49;;;;;;;;;;;;;;;15.62;100.00;101610.31;1044047;28;19924;-73
2022/08/24 02:53:24;;;;;;;;;;;;;;;15.62;100.00;101602.25;1037426;28;19926;-74
2022/08/24 02:53:57;;;;;;;;;;;;;;;15.62;100.00;101616.50;1035590;28;20319;-73
2022/08/24 02:54:33;;;;;;;;;;;;;;;15.67;100.00;101616.63;1041541;28;19925;-73
2022/08/24 02:55:09;;;;;;;;;;;;;;;15.64;100.00;101606.34;1045354;28;19925;-73
2022/08/24 02:55:44;;;;;;;;;;;;;;;15.68;100.00;101612.06;1045502;28;20310;-73
2022/08/24 02:56:20;;;;;;;;;;;;;;;15.62;100.00;101616.50;1039144;28;19925;-73
2022/08/24 02:56:56;;;;;;;;;;;;;;;15.52;100.00;101616.19;1039698;28;19925;-73
2022/08/24 02:57:31;;;;;;;;;;;;;;;15.48;100.00;101611.53;1041817;28;19932;-73
2022/08/24 02:58:04;;;;;;;;;;;;;;;15.41;100.00;101617.81;1046408;28;19924;-73
2022/08/24 02:58:39;;;;;;;;;;;;;;;15.45;100.00;101612.81;1037277;28;19925;-73
2022/08/24 02:59:15;;;;;;;;;;;;;;;15.41;100.00;101608.94;1036406;28;19993;-73
2022/08/24 02:59:51;;;;;;;;;;;;;;;15.32;100.00;101616.50;1037667;28;20014;-73